createdAt,value
2022-09-17T00:00:52.455Z,101417.34
2022-09-17T00:03:19.015Z,101421.69
2022-09-17T00:05:45.435Z,101426.16
2022-09-17T00:08:14.893Z,101430.44
2022-09-17T00:10:43.622Z,101430.53
2022-09-17T00:13:11.853Z,101435.66
2022-09-17T00:15:43.869Z,101436.44
2022-09-17T00:18:11.260Z,101430.31
2022-09-17T00:20:39.687Z,101427.78
2022-09-17T00:23:06.897Z,101425.16
2022-09-17T00:25:33.389Z,101432.13
2022-09-17T00:27:59.783Z,101431.13
2022-09-17T00:30:26.172Z,101432.91
2022-09-17T00:32:53.128Z,101435.59
2022-09-17T00:35:19.525Z,101449.53
2022-09-17T00:37:46.031Z,101447.09
2022-09-17T00:40:12.462Z,101454.84
2022-09-17T00:42:38.964Z,101457.47
2022-09-17T00:45:05.835Z,101452.38
2022-09-17T00:47:37.429Z,101451.59
2022-09-17T00:50:09.446Z,101456.13
2022-09-17T00:52:52.347Z,101448.38
2022-09-17T00:55:27.518Z,101462.41
2022-09-17T00:57:58.871Z,101463.47
2022-09-17T01:00:27.129Z,101464.56
2022-09-17T01:02:54.730Z,101461.06
2022-09-17T01:05:55.098Z,101469.78
2022-09-17T01:08:36.851Z,101457.78
2022-09-17T01:11:35.546Z,101452.78
2022-09-17T01:14:10.627Z,101453.00
2022-09-17T01:17:07.605Z,101454.91
2022-09-17T01:19:43.948Z,101453.19
2022-09-17T01:22:19.843Z,101453.34
2022-09-17T01:24:58.579Z,101463.91
2022-09-17T01:27:33.804Z,101457.94
2022-09-17T01:30:15.601Z,101460.47
2022-09-17T01:32:52.150Z,101466.47
2022-09-17T01:35:40.287Z,101468.22
2022-09-17T01:38:16.277Z,101478.66
2022-09-17T01:40:51.026Z,101478.56
2022-09-17T01:43:34.831Z,101473.31
2022-09-17T01:46:32.081Z,101476.63
2022-09-17T01:49:05.923Z,101477.38
2022-09-17T01:51:38.892Z,101476.25
2022-09-17T01:54:31.073Z,101485.69
2022-09-17T01:57:14.467Z,101481.31
2022-09-17T02:00:02.368Z,101475.19
2022-09-17T02:02:44.010Z,101478.63
2022-09-17T02:05:36.434Z,101477.88
2022-09-17T02:08:10.311Z,101491.81
2022-09-17T02:10:48.048Z,101491.88
2022-09-17T02:13:21.583Z,101497.19
2022-09-17T02:15:55.625Z,101497.31
2022-09-17T02:18:45.628Z,101489.78
2022-09-17T02:21:17.152Z,101489.09
2022-09-17T02:24:00.773Z,101484.75
2022-09-17T02:26:27.939Z,101494.56
2022-09-17T02:28:59.727Z,101495.53
2022-09-17T02:31:26.446Z,101487.09
2022-09-17T02:34:01.450Z,101489.84
2022-09-17T02:36:28.519Z,101489.97
2022-09-17T02:39:01.543Z,101491.03
2022-09-17T02:41:58.214Z,101488.63
2022-09-17T02:44:55.753Z,101491.34
2022-09-17T02:47:34.019Z,101497.63
2022-09-17T02:50:04.698Z,101499.59
2022-09-17T02:53:05.020Z,101496.28
2022-09-17T02:56:10.478Z,101499.06
2022-09-17T02:59:02.339Z,101505.38
2022-09-17T03:01:35.684Z,101504.69
2022-09-17T03:04:06.426Z,101505.72
2022-09-17T03:06:32.877Z,101509.34
2022-09-17T03:08:59.274Z,101504.34
2022-09-17T03:11:25.707Z,101512.16
2022-09-17T03:13:52.074Z,101508.75
2022-09-17T03:16:18.493Z,101507.97
2022-09-17T03:18:44.927Z,101510.66
2022-09-17T03:21:12.499Z,101508.06
2022-09-17T03:23:39.527Z,101495.94
2022-09-17T03:26:06.086Z,101502.88
2022-09-17T03:28:32.603Z,101500.28
2022-09-17T03:30:59.093Z,101492.56
2022-09-17T03:33:25.626Z,101496.97
2022-09-17T03:35:52.058Z,101493.53
2022-09-17T03:38:18.478Z,101497.03
2022-09-17T03:40:44.873Z,101486.75
2022-09-17T03:43:11.292Z,101493.78
2022-09-17T03:45:37.815Z,101496.47
2022-09-17T03:48:04.327Z,101495.75
2022-09-17T03:50:30.744Z,101495.94
2022-09-17T03:52:57.091Z,101502.25
2022-09-17T03:55:23.475Z,101514.53
2022-09-17T03:57:51.249Z,101512.81
2022-09-17T04:00:17.722Z,101502.47
2022-09-17T04:02:44.399Z,101509.38
2022-09-17T04:05:10.896Z,101512.81
2022-09-17T04:07:37.315Z,101520.56
2022-09-17T04:10:05.257Z,101530.91
2022-09-17T04:12:31.890Z,101528.31
2022-09-17T04:14:58.315Z,101530.03
2022-09-17T04:17:24.682Z,101518.78
2022-09-17T04:19:51.144Z,101515.16
2022-09-17T04:22:17.495Z,101513.41
2022-09-17T04:24:43.872Z,101524.56
2022-09-17T04:27:10.376Z,101522.81
2022-09-17T04:29:36.806Z,101521.97
2022-09-17T04:32:03.589Z,101522.03
2022-09-17T04:34:30.636Z,101526.44
2022-09-17T04:36:57.003Z,101518.78
2022-09-17T04:39:23.462Z,101514.41
2022-09-17T04:41:49.811Z,101512.69
2022-09-17T04:44:16.190Z,101511.94
2022-09-17T04:46:42.576Z,101519.91
2022-09-17T04:49:08.965Z,101520.09
2022-09-17T04:51:35.346Z,101522.91
2022-09-17T04:54:01.728Z,101526.47
2022-09-17T04:56:28.168Z,101526.47
2022-09-17T04:58:54.530Z,101523.91
2022-09-17T05:01:21.002Z,101535.34
2022-09-17T05:03:47.439Z,101522.41
2022-09-17T05:06:13.935Z,101523.50
2022-09-17T05:08:40.403Z,101528.69
2022-09-17T05:11:09.091Z,101531.38
2022-09-17T05:13:35.715Z,101531.50
2022-09-17T05:16:02.334Z,101531.53
2022-09-17T05:18:29.927Z,101536.81
2022-09-17T05:20:56.292Z,101544.72
2022-09-17T05:23:22.722Z,101545.75
2022-09-17T05:25:49.182Z,101544.13
2022-09-17T05:28:15.535Z,101557.03
2022-09-17T05:30:42.814Z,101547.44
2022-09-17T05:33:09.967Z,101552.56
2022-09-17T05:35:36.719Z,101549.00
2022-09-17T05:38:05.550Z,101551.56
2022-09-17T05:40:33.052Z,101551.38
2022-09-17T05:43:04.633Z,101562.47
2022-09-17T05:45:33.363Z,101561.44
2022-09-17T05:48:01.842Z,101568.84
2022-09-17T05:50:29.726Z,101574.56
2022-09-17T05:52:56.584Z,101579.47
2022-09-17T05:55:24.222Z,101576.56
2022-09-17T05:57:51.320Z,101573.84
2022-09-17T06:00:18.994Z,101571.22
2022-09-17T06:02:46.875Z,101565.94
2022-09-17T06:05:13.323Z,101565.19
2022-09-17T06:07:39.943Z,101574.78
2022-09-17T06:10:08.247Z,101576.34
2022-09-17T06:12:35.741Z,101574.44
2022-09-17T06:15:06.334Z,101563.91
2022-09-17T06:17:34.920Z,101566.28
2022-09-17T06:20:02.059Z,101570.41
2022-09-17T06:22:31.027Z,101577.19
2022-09-17T06:24:57.729Z,101580.28
2022-09-17T06:27:24.200Z,101572.97
2022-09-17T06:29:50.579Z,101576.13
2022-09-17T06:32:17.062Z,101575.88
2022-09-17T06:34:43.879Z,101574.59
2022-09-17T06:37:10.403Z,101569.00
2022-09-17T06:39:36.836Z,101575.59
2022-09-17T06:42:03.317Z,101571.94
2022-09-17T06:44:29.663Z,101574.88
2022-09-17T06:46:56.465Z,101589.03
2022-09-17T06:49:23.003Z,101592.81
2022-09-17T06:51:49.388Z,101583.88
2022-09-17T06:54:15.969Z,101589.53
2022-09-17T06:56:43.988Z,101588.19
2022-09-17T06:59:10.394Z,101592.09
2022-09-17T07:01:36.869Z,101599.50
2022-09-17T07:04:03.300Z,101591.25
2022-09-17T07:06:29.690Z,101589.94
2022-09-17T07:08:56.072Z,101587.09
2022-09-17T07:11:22.486Z,101591.88
2022-09-17T07:13:48.883Z,101596.09
2022-09-17T07:16:15.470Z,101598.91
2022-09-17T07:18:41.988Z,101584.97
2022-09-17T07:23:46.627Z,101583.75
2022-09-17T07:26:14.637Z,101579.97
2022-09-17T07:28:41.745Z,101584.19
2022-09-17T07:31:13.705Z,101575.22
2022-09-17T07:33:42.367Z,101574.91
2022-09-17T07:36:12.129Z,101577.38
2022-09-17T07:38:39.573Z,101582.38
2022-09-17T07:41:09.561Z,101582.22
2022-09-17T07:43:36.272Z,101582.81
2022-09-17T07:46:05.176Z,101583.19
2022-09-17T07:48:32.482Z,101588.91
2022-09-17T07:50:58.994Z,101585.72
2022-09-17T07:53:26.060Z,101598.22
2022-09-17T07:55:57.781Z,101601.84
2022-09-17T07:58:29.398Z,101593.72
2022-09-17T08:01:08.300Z,101593.38
2022-09-17T08:03:35.549Z,101592.56
2022-09-17T08:06:06.994Z,101593.03
2022-09-17T08:08:35.847Z,101596.88
2022-09-17T08:11:09.917Z,101603.19
2022-09-17T08:13:37.315Z,101601.00
2022-09-17T08:16:13.193Z,101605.97
2022-09-17T08:18:40.717Z,101601.16
2022-09-17T08:21:09.726Z,101598.91
2022-09-17T08:23:38.692Z,101623.81
2022-09-17T08:26:08.589Z,101613.34
2022-09-17T08:28:35.894Z,101608.78
2022-09-17T08:31:08.306Z,101598.66
2022-09-17T08:33:40.022Z,101608.25
2022-09-17T08:36:08.538Z,101609.78
2022-09-17T08:38:38.420Z,101602.97
2022-09-17T08:41:11.379Z,101608.25
2022-09-17T08:43:55.477Z,101610.94
2022-09-17T08:46:23.857Z,101610.34
2022-09-17T08:49:15.396Z,101605.31
2022-09-17T08:52:06.020Z,101607.38
2022-09-17T08:54:35.247Z,101614.81
2022-09-17T08:57:24.979Z,101618.63
2022-09-17T09:00:11.314Z,101618.69
2022-09-17T09:02:50.927Z,101615.69
2022-09-17T09:05:22.829Z,101613.97
2022-09-17T09:07:55.156Z,101607.41
2022-09-17T09:10:31.983Z,101604.69
2022-09-17T09:13:00.619Z,101610.38
2022-09-17T09:15:42.392Z,101615.50
2022-09-17T09:18:24.098Z,101607.81
2022-09-17T09:20:58.927Z,101610.63
2022-09-17T09:24:03.178Z,101605.53
2022-09-17T09:26:45.104Z,101598.34
2022-09-17T09:29:29.983Z,101606.50
2022-09-17T09:32:22.916Z,101601.78
2022-09-17T09:34:50.533Z,101604.19
2022-09-17T09:37:24.873Z,101603.38
2022-09-17T09:39:54.084Z,101609.78
2022-09-17T09:42:29.365Z,101607.38
2022-09-17T09:45:07.252Z,101634.63
2022-09-17T09:47:54.811Z,101632.50
2022-09-17T09:51:05.832Z,101621.78
2022-09-17T09:53:41.986Z,101630.59
2022-09-17T09:56:47.911Z,101640.72
2022-09-17T09:59:14.346Z,101632.34
2022-09-17T10:01:42.885Z,101634.34
2022-09-17T10:04:24.378Z,101658.28
2022-09-17T10:06:53.759Z,101659.38
2022-09-17T10:09:22.560Z,101653.47
2022-09-17T10:12:12.301Z,101665.44
2022-09-17T10:14:40.763Z,101659.13
2022-09-17T10:17:18.054Z,101648.47
2022-09-17T10:19:46.143Z,101643.91
2022-09-17T10:22:24.506Z,101646.50
2022-09-17T10:24:53.325Z,101637.56
2022-09-17T10:27:23.131Z,101644.72
2022-09-17T10:29:55.058Z,101642.78
2022-09-17T10:32:22.779Z,101637.00
2022-09-17T10:34:58.344Z,101642.47
2022-09-17T10:37:55.438Z,101635.03
2022-09-17T10:40:27.397Z,101637.47
2022-09-17T10:43:14.257Z,101626.09
2022-09-17T10:45:55.983Z,101616.34
2022-09-17T10:48:22.805Z,101619.81
2022-09-17T10:50:56.762Z,101615.00
2022-09-17T10:53:25.736Z,101611.28
2022-09-17T10:56:19.311Z,101604.41
2022-09-17T10:59:05.066Z,101602.66
2022-09-17T11:01:52.036Z,101594.22
2022-09-17T11:04:31.431Z,101594.59
2022-09-17T11:07:20.208Z,101589.69
2022-09-17T11:10:04.662Z,101584.25
2022-09-17T11:12:42.061Z,101582.59
2022-09-17T11:15:25.280Z,101580.63
2022-09-17T11:18:19.886Z,101571.00
2022-09-17T11:21:04.261Z,101576.06
2022-09-17T11:23:40.243Z,101569.88
2022-09-17T11:26:18.663Z,101580.25
2022-09-17T11:29:10.114Z,101572.75
2022-09-17T11:31:59.574Z,101568.53
2022-09-17T11:34:32.372Z,101573.97
2022-09-17T11:37:09.160Z,101575.19
2022-09-17T11:39:59.454Z,101577.53
2022-09-17T11:42:32.501Z,101581.75
2022-09-17T11:45:25.781Z,101569.00
2022-09-17T11:48:18.074Z,101566.06
2022-09-17T11:50:50.388Z,101574.19
2022-09-17T11:53:59.865Z,101569.06
2022-09-17T11:56:34.947Z,101569.81
2022-09-17T11:59:34.843Z,101573.00
2022-09-17T12:02:23.014Z,101576.41
2022-09-17T12:05:12.226Z,101590.53
2022-09-17T12:07:50.992Z,101594.88
2022-09-17T12:10:36.324Z,101589.00
2022-09-17T12:13:13.650Z,101606.47
2022-09-17T12:15:45.588Z,101614.38
2022-09-17T12:18:32.351Z,101660.53
2022-09-17T12:21:02.963Z,101621.00
2022-09-17T12:23:37.162Z,101624.06
2022-09-17T12:26:32.289Z,101612.44
2022-09-17T12:29:08.442Z,101607.03
2022-09-17T12:32:04.009Z,101607.84
2022-09-17T12:35:07.916Z,101614.69
2022-09-17T12:37:52.995Z,101611.78
2022-09-17T12:41:00.891Z,101608.75
2022-09-17T12:43:28.765Z,101605.28
2022-09-17T12:46:21.456Z,101603.97
2022-09-17T12:49:25.712Z,101601.88
2022-09-17T12:51:56.772Z,101595.13
2022-09-17T12:55:07.829Z,101583.06
2022-09-17T12:57:44.336Z,101603.06
2022-09-17T13:00:15.858Z,101625.53
2022-09-17T13:02:49.530Z,101626.63
2022-09-17T13:05:55.022Z,101635.63
2022-09-17T13:08:43.374Z,101618.81
2022-09-17T13:11:21.939Z,101618.03
2022-09-17T13:14:19.462Z,101599.09
2022-09-17T13:17:01.219Z,101602.25
2022-09-17T13:19:30.593Z,101588.16
2022-09-17T13:22:20.634Z,101588.78
2022-09-17T13:25:00.915Z,101591.41
2022-09-17T13:27:28.021Z,101594.94
2022-09-17T13:29:54.336Z,101583.31
2022-09-17T13:32:33.214Z,101580.44
2022-09-17T13:35:11.589Z,101583.44
2022-09-17T13:37:41.166Z,101582.59
2022-09-17T13:40:23.592Z,101579.19
2022-09-17T13:42:56.302Z,101605.19
2022-09-17T13:45:24.462Z,101609.88
2022-09-17T13:48:05.177Z,101612.47
2022-09-17T13:50:35.040Z,101606.72
2022-09-17T13:53:14.296Z,101614.59
2022-09-17T13:55:42.702Z,101611.31
2022-09-17T13:58:22.164Z,101609.19
2022-09-17T14:00:54.654Z,101611.94
2022-09-17T14:03:41.803Z,101621.72
2022-09-17T14:06:08.484Z,101618.72
2022-09-17T14:08:44.078Z,101624.94
2022-09-17T14:11:37.425Z,101619.94
2022-09-17T14:14:07.946Z,101616.50
2022-09-17T14:16:40.823Z,101626.03
2022-09-17T14:19:16.991Z,101615.19
2022-09-17T14:22:15.236Z,101611.25
2022-09-17T14:24:44.812Z,101613.28
2022-09-17T14:27:16.926Z,101612.25
2022-09-17T14:30:01.338Z,101606.47
2022-09-17T14:32:33.477Z,101607.03
2022-09-17T14:35:15.520Z,101601.44
2022-09-17T14:37:46.913Z,101607.16
2022-09-17T14:40:18.737Z,101600.69
2022-09-17T14:42:48.541Z,101605.53
2022-09-17T14:45:21.305Z,101595.06
2022-09-17T14:47:47.751Z,101596.19
2022-09-17T14:50:20.756Z,101598.44
2022-09-17T14:52:52.691Z,101604.16
2022-09-17T14:55:24.118Z,101595.34
2022-09-17T14:57:56.296Z,101607.16
2022-09-17T15:00:32.833Z,101600.41
2022-09-17T15:02:59.729Z,101594.13
2022-09-17T15:05:35.720Z,101591.88
2022-09-17T15:08:21.200Z,101589.16
2022-09-17T15:11:01.665Z,101583.53
2022-09-17T15:13:40.665Z,101583.91
2022-09-17T15:16:13.531Z,101594.31
2022-09-17T15:18:52.577Z,101591.97
2022-09-17T15:21:34.620Z,101595.50
2022-09-17T15:24:17.750Z,101584.63
2022-09-17T15:26:48.531Z,101592.97
2022-09-17T15:29:15.238Z,101591.00
2022-09-17T15:31:41.933Z,101602.19
2022-09-17T15:34:11.388Z,101613.97
2022-09-17T15:36:38.298Z,101604.22
2022-09-17T15:39:46.553Z,101607.31
2022-09-17T15:42:22.091Z,101611.91
2022-09-17T15:44:48.570Z,101616.22
2022-09-17T15:47:34.998Z,101614.78
2022-09-17T15:50:28.186Z,101615.19
2022-09-17T15:53:09.910Z,101609.19
2022-09-17T15:55:40.948Z,101609.38
2022-09-17T15:58:27.341Z,101616.09
2022-09-17T16:01:15.367Z,101604.94
2022-09-17T16:03:41.902Z,101605.59
2022-09-17T16:06:25.353Z,101600.09
2022-09-17T16:08:57.242Z,101609.19
2022-09-17T16:11:26.220Z,101609.31
2022-09-17T16:13:54.547Z,101601.03
2022-09-17T16:16:42.539Z,101607.31
2022-09-17T16:19:10.393Z,101610.84
2022-09-17T16:21:36.890Z,101594.88
2022-09-17T16:24:03.708Z,101597.88
2022-09-17T16:26:35.050Z,101595.19
2022-09-17T16:29:18.010Z,101601.34
2022-09-17T16:31:45.036Z,101597.97
2022-09-17T16:34:11.547Z,101600.78
2022-09-17T16:36:38.045Z,101601.78
2022-09-17T16:39:05.145Z,101612.63
2022-09-17T16:41:31.603Z,101617.22
2022-09-17T16:43:58.407Z,101613.91
2022-09-17T16:46:25.879Z,101622.91
2022-09-17T16:48:52.406Z,101622.22
2022-09-17T16:51:19.157Z,101634.66
2022-09-17T16:53:45.784Z,101628.66
2022-09-17T16:56:14.680Z,101634.16
2022-09-17T16:58:41.789Z,101638.06
2022-09-17T17:01:14.623Z,101642.13
2022-09-17T17:03:41.961Z,101649.81
2022-09-17T17:06:19.977Z,101656.41
2022-09-17T17:08:46.742Z,101660.03
2022-09-17T17:11:13.960Z,101670.75
2022-09-17T17:13:43.035Z,101656.31
2022-09-17T17:16:11.522Z,101656.31
2022-09-17T17:18:38.055Z,101660.88
2022-09-17T17:21:08.700Z,101677.06
2022-09-17T17:23:35.713Z,101656.88
2022-09-17T17:26:03.565Z,101657.84
2022-09-17T17:28:35.202Z,101659.88
2022-09-17T17:31:02.971Z,101647.09
2022-09-17T17:33:29.796Z,101640.41
2022-09-17T17:36:06.692Z,101650.28
2022-09-17T17:38:34.031Z,101642.75
2022-09-17T17:41:14.640Z,101652.44
2022-09-17T17:43:41.907Z,101650.75
2022-09-17T17:46:09.917Z,101647.34
2022-09-17T17:48:37.006Z,101647.59
2022-09-17T17:51:06.316Z,101644.38
2022-09-17T17:53:32.974Z,101648.06
2022-09-17T17:56:01.711Z,101645.75
2022-09-17T17:58:28.407Z,101650.38
2022-09-17T18:00:55.432Z,101645.47
2022-09-17T18:03:25.131Z,101658.78
2022-09-17T18:05:53.368Z,101657.16
2022-09-17T18:08:19.777Z,101660.00
2022-09-17T18:10:56.873Z,101672.06
2022-09-17T18:13:24.268Z,101674.75
2022-09-17T18:15:55.703Z,101673.97
2022-09-17T18:18:23.517Z,101681.81
2022-09-17T18:20:51.788Z,101681.91
2022-09-17T18:23:18.344Z,101686.50
2022-09-17T18:25:59.254Z,101680.88
2022-09-17T18:28:27.315Z,101678.63
2022-09-17T18:30:54.659Z,101680.00
2022-09-17T18:33:24.776Z,101684.75
2022-09-17T18:35:56.840Z,101685.88
2022-09-17T18:38:24.100Z,101687.84
2022-09-17T18:40:51.602Z,101687.09
2022-09-17T18:43:18.256Z,101687.22
2022-09-17T18:45:54.381Z,101686.53
2022-09-17T18:48:21.139Z,101688.47
2022-09-17T18:51:04.297Z,101688.59
2022-09-17T18:53:33.249Z,101696.44
2022-09-17T18:56:04.694Z,101700.06
2022-09-17T18:58:31.084Z,101695.81
2022-09-17T19:00:57.628Z,101695.09
2022-09-17T19:03:24.136Z,101702.16
2022-09-17T19:05:50.555Z,101701.44
2022-09-17T19:08:22.518Z,101707.63
2022-09-17T19:10:52.871Z,101697.41
2022-09-17T19:13:19.660Z,101700.88
2022-09-17T19:15:46.407Z,101701.84
2022-09-17T19:18:12.846Z,101698.53
2022-09-17T19:20:39.750Z,101702.06
2022-09-17T19:23:06.907Z,101703.03
2022-09-17T19:25:36.071Z,101711.84
2022-09-17T19:28:06.711Z,101712.06
2022-09-17T19:30:33.478Z,101713.13
2022-09-17T19:33:00.339Z,101707.19
2022-09-17T19:35:27.433Z,101710.78
2022-09-17T19:37:58.147Z,101705.63
2022-09-17T19:40:24.843Z,101708.44
2022-09-17T19:42:55.770Z,101707.97
2022-09-17T19:45:23.326Z,101710.59
2022-09-17T19:47:51.274Z,101716.81
2022-09-17T19:50:18.540Z,101711.72
2022-09-17T19:52:45.055Z,101711.72
2022-09-17T19:55:13.060Z,101705.59
2022-09-17T19:57:40.331Z,101710.72
2022-09-17T20:00:09.216Z,101713.28
2022-09-17T20:02:35.691Z,101711.44
2022-09-17T20:05:02.232Z,101706.22
2022-09-17T20:07:30.058Z,101713.91
2022-09-17T20:09:56.485Z,101707.78
2022-09-17T20:12:22.934Z,101702.63
2022-09-17T20:14:49.329Z,101701.06
2022-09-17T20:17:15.726Z,101700.28
2022-09-17T20:19:42.469Z,101704.59
2022-09-17T20:22:08.922Z,101702.06
2022-09-17T20:24:35.391Z,101708.19
2022-09-17T20:27:01.806Z,101700.38
2022-09-17T20:29:28.240Z,101699.56
2022-09-17T20:31:54.712Z,101696.97
2022-09-17T20:34:21.101Z,101691.75
2022-09-17T20:36:47.537Z,101697.69
2022-09-17T20:39:19.705Z,101696.84
2022-09-17T20:41:49.002Z,101706.38
2022-09-17T20:44:15.409Z,101707.34
2022-09-17T20:46:41.895Z,101702.31
2022-09-17T20:49:08.585Z,101695.50
2022-09-17T20:51:35.261Z,101704.28
2022-09-17T20:54:01.932Z,101700.13
2022-09-17T20:56:32.410Z,101701.94
2022-09-17T20:59:08.258Z,101699.41
2022-09-17T21:01:35.783Z,101713.28
2022-09-17T21:04:04.351Z,101715.88
2022-09-17T21:06:36.061Z,101714.91
2022-09-17T21:09:03.468Z,101712.16
2022-09-17T21:11:31.385Z,101727.66
2022-09-17T21:13:59.969Z,101720.63
2022-09-17T21:16:26.872Z,101721.44
2022-09-17T21:18:58.318Z,101724.75
2022-09-17T21:21:26.012Z,101725.72
2022-09-17T21:23:52.717Z,101730.88
2022-09-17T21:26:24.051Z,101729.97
2022-09-17T21:28:52.121Z,101727.41
2022-09-17T21:31:21.511Z,101735.25
2022-09-17T21:33:52.001Z,101723.03
2022-09-17T21:36:20.646Z,101735.25
2022-09-17T21:39:14.365Z,101733.59
2022-09-17T21:41:42.966Z,101726.78
2022-09-17T21:44:13.012Z,101740.66
2022-09-17T21:46:40.853Z,101742.59
2022-09-17T21:49:07.832Z,101744.44
2022-09-17T21:51:39.174Z,101738.44
2022-09-17T21:54:08.481Z,101735.09
2022-09-17T21:56:35.661Z,101734.19
2022-09-17T21:59:04.463Z,101733.22
2022-09-17T22:01:35.698Z,101727.88
2022-09-17T22:04:02.353Z,101726.94
2022-09-17T22:06:31.671Z,101726.91
2022-09-17T22:09:00.085Z,101731.13
2022-09-17T22:11:32.002Z,101731.91
2022-09-17T22:14:00.784Z,101721.47
2022-09-17T22:16:30.730Z,101719.66
2022-09-17T22:19:02.702Z,101718.81
2022-09-17T22:21:31.191Z,101719.66
2022-09-17T22:23:59.924Z,101709.25
2022-09-17T22:26:29.635Z,101712.81
2022-09-17T22:28:56.687Z,101708.53
2022-09-17T22:31:23.228Z,101716.41
2022-09-17T22:33:50.432Z,101714.75
2022-09-17T22:36:19.436Z,101721.03
2022-09-17T22:38:48.502Z,101716.78
2022-09-17T22:41:20.407Z,101715.16
2022-09-17T22:43:47.560Z,101713.53
2022-09-17T22:46:23.042Z,101716.25
2022-09-17T22:48:49.738Z,101711.06
2022-09-17T22:51:16.599Z,101712.72
2022-09-17T22:53:43.615Z,101711.88
2022-09-17T22:56:12.881Z,101722.28
2022-09-17T22:58:39.817Z,101719.53
2022-09-17T23:01:21.191Z,101715.09
2022-09-17T23:03:48.899Z,101703.69
2022-09-17T23:06:21.911Z,101707.97
2022-09-17T23:08:48.340Z,101703.47
2022-09-17T23:11:25.080Z,101712.03
2022-09-17T23:13:52.062Z,101709.38
2022-09-17T23:16:19.711Z,101724.88
2022-09-17T23:18:46.356Z,101717.81
2022-09-17T23:21:16.386Z,101727.25
2022-09-17T23:23:44.709Z,101719.34
2022-09-17T23:26:14.371Z,101720.19
2022-09-17T23:28:41.446Z,101712.31
2022-09-17T23:31:16.301Z,101715.75
2022-09-17T23:33:43.141Z,101712.22
2022-09-17T23:36:15.287Z,101704.47
2022-09-17T23:38:43.938Z,101707.09
2022-09-17T23:41:21.529Z,101701.88
2022-09-17T23:43:50.574Z,101703.59
2022-09-17T23:46:18.169Z,101707.09
2022-09-17T23:48:45.157Z,101695.72
2022-09-17T23:51:11.888Z,101700.09
2022-09-17T23:53:38.402Z,101694.94
2022-09-17T23:56:11.627Z,101694.94
2022-09-17T23:58:38.148Z,101688.88
